Radiosonde details



Informationen :

Serial : D26001868
Type : Graw DFM
Frequency : 403.210MHz
Launchsite : Spokane
Nearest town : Saint Maries, US (5.8km)

Altitude (Max) : 34703m at 2026-08-30 18:51:05
Speed (Max) : 148km/h at altitude 11308m

Average speed : 53km/h
Average ascent rate : 5m/s
Average descent rate : -10m/s
Ascent rate (Max) : 15.7m/s
Descent rate (Max): -32m/s

First frame :
WB7NNF at 2026-08-30 17:20:29 at altitude 4824m (OG: 4782m)
Last frame :
WB7NNF at 2026-08-30 19:34:48 at altitude 8759m (OG: 8717m)

Flighttime : 2h14m19s
Ascent time : 1h30m36s
Descent time : 43m43s
Uptime : -
Killtimer : -

Distance (Straight line distance): 79km

Distance (Route):


Frames : 361


Measurement :

Temperature : -33.9°C
Humidity : 0%
Pressure : 0hPa


Vertical profile (SkewT) :


Elevation profile :



Receiving stations :


Receiver Frames First received Last received
WB7NNF 361 2026-08-30 17:20:29 2026-08-30 19:34:48

Share per receiver :



All frames :


Receiver Date Latitude Longitude Direction Speed Altitude Climb Temperature Humidity Pressure Voltage Killtimer Uptime BKT XDATA
WB7NNF2026-08-30 19:34:4847.35848-116.60376122°99km/h8759m-4.7m/s-33.9°C0%0hPa0V00:00:0000:00:0000:00:00
WB7NNF2026-08-30 19:34:0747.36427-116.61618123°97km/h8940m-4.6m/s-35.5°C0%0hPa0V00:00:0000:00:0000:00:00
WB7NNF2026-08-30 19:33:4447.36769-116.62337126°97km/h9047m-4.7m/s-36.3°C0%0hPa0V00:00:0000:00:0000:00:00
WB7NNF2026-08-30 19:33:2247.37088-116.63038127°106km/h9153m-4.9m/s-37.3°C0%0hPa0V00:00:0000:00:0000:00:00
WB7NNF2026-08-30 19:33:0147.37401-116.63739121°106km/h9261m-5.0m/s-38.1°C0%0hPa0V00:00:0000:00:0000:00:00
WB7NNF2026-08-30 19:32:3947.37708-116.64463120°100km/h9370m-5.1m/s-38.8°C0%0hPa0V00:00:0000:00:0000:00:00
WB7NNF2026-08-30 19:32:1547.38025-116.65231123°99km/h9487m-5.1m/s0°C0%0hPa0V00:00:0000:00:0000:00:00
WB7NNF2026-08-30 19:31:5347.38346-116.66016125°106km/h9604m-5.2m/s0°C0%0hPa0V00:00:0000:00:0000:00:00
WB7NNF2026-08-30 19:28:1347.41632-116.73598129°106km/h10702m-4.9m/s-48.9°C0%0hPa0V00:00:0000:00:0000:00:00
WB7NNF2026-08-30 19:27:5347.41980-116.74178128°113km/h10789m-4.8m/s-49.5°C0%0hPa0V00:00:0000:00:0000:00:00
WB7NNF2026-08-30 19:27:3147.42327-116.74869130°111km/h10891m-5.0m/s-50.4°C0%0hPa0V00:00:0000:00:0000:00:00
WB7NNF2026-08-30 19:27:1047.42677-116.75566126°110km/h10997m-5.0m/s-51.1°C0%0hPa0V00:00:0000:00:0000:00:00
WB7NNF2026-08-30 19:26:5047.43033-116.76299126°120km/h11104m-4.9m/s-51.7°C0%0hPa0V00:00:0000:00:0000:00:00
WB7NNF2026-08-30 19:26:2947.43408-116.76988130°124km/h11207m-5.2m/s-52.3°C0%0hPa0V00:00:0000:00:0000:00:00
WB7NNF2026-08-30 19:26:0947.43817-116.77704134°120km/h11314m-5.1m/s-52.6°C0%0hPa0V00:00:0000:00:0000:00:00
WB7NNF2026-08-30 19:25:4847.44219-116.78359135°110km/h11417m-5.1m/s-52.9°C0%0hPa0V00:00:0000:00:0000:00:00
WB7NNF2026-08-30 19:25:2847.44659-116.79014135°115km/h11525m-5.1m/s-53.3°C0%0hPa0V00:00:0000:00:0000:00:00
WB7NNF2026-08-30 19:25:0747.45099-116.79649134°108km/h11633m-5.1m/s-53.5°C0%0hPa0V00:00:0000:00:0000:00:00
WB7NNF2026-08-30 19:24:4647.45460-116.80215128°102km/h11737m-5.3m/s-53.9°C0%0hPa0V00:00:0000:00:0000:00:00
WB7NNF2026-08-30 19:24:2647.45773-116.80833124°106km/h11847m-5.2m/s-53.7°C0%0hPa0V00:00:0000:00:0000:00:00
WB7NNF2026-08-30 19:24:0547.46037-116.81487125°102km/h11954m-5.3m/s-51.9°C0%0hPa0V00:00:0000:00:0000:00:00
WB7NNF2026-08-30 19:23:4547.46305-116.82078127°84km/h12067m-5.4m/s-52.0°C0%0hPa0V00:00:0000:00:0000:00:00
WB7NNF2026-08-30 19:23:2447.46535-116.82612125°78km/h12177m-5.5m/s-52.1°C0%0hPa0V00:00:0000:00:0000:00:00
WB7NNF2026-08-30 19:23:0447.46756-116.83147115°75km/h12294m-5.4m/s-52.4°C0%0hPa0V00:00:0000:00:0000:00:00
WB7NNF2026-08-30 19:22:4247.46927-116.83690116°86km/h12409m-5.6m/s-51.8°C0%0hPa0V00:00:0000:00:0000:00:00
WB7NNF2026-08-30 19:22:2147.47109-116.84274120°84km/h12525m-5.3m/s-51.2°C0%0hPa0V00:00:0000:00:0000:00:00
WB7NNF2026-08-30 19:21:5747.47290-116.84883110°68km/h12658m-5.4m/s-51.6°C0%0hPa0V00:00:0000:00:0000:00:00
WB7NNF2026-08-30 19:21:0147.47499-116.86478105°89km/h12975m-5.7m/s-51.0°C0%0hPa0V00:00:0000:00:0000:00:00
WB7NNF2026-08-30 19:20:4047.47623-116.87134116°82km/h13097m-5.7m/s-50.7°C0%0hPa0V00:00:0000:00:0000:00:00
WB7NNF2026-08-30 19:20:1947.47796-116.87657121°66km/h13215m-5.8m/s-50.6°C0%0hPa0V00:00:0000:00:0000:00:00
WB7NNF2026-08-30 19:19:5947.47956-116.88100110°60km/h13341m-5.8m/s-51.6°C0%0hPa0V00:00:0000:00:0000:00:00
WB7NNF2026-08-30 19:19:3847.48067-116.88520107°64km/h13463m-6.2m/s-51.3°C0%0hPa0V00:00:0000:00:0000:00:00
WB7NNF2026-08-30 19:19:1847.48194-116.88918120°57km/h13593m-6.1m/s-51.5°C0%0hPa0V00:00:0000:00:0000:00:00
WB7NNF2026-08-30 19:18:5747.48286-116.89259115°46km/h13718m-6.1m/s-52.1°C0%0hPa0V00:00:0000:00:0000:00:00
WB7NNF2026-08-30 19:18:3747.48336-116.8963597°47km/h13848m-6.2m/s-52.1°C0%0hPa0V00:00:0000:00:0000:00:00
WB7NNF2026-08-30 19:18:1647.48419-116.89990102°51km/h13972m-6.1m/s-51.8°C0%0hPa0V00:00:0000:00:0000:00:00
WB7NNF2026-08-30 19:17:5647.48499-116.90349119°53km/h14105m-6.3m/s-50.8°C0%0hPa0V00:00:0000:00:0000:00:00
WB7NNF2026-08-30 19:17:1547.48590-116.9093187°38km/h14364m-6.1m/s-52.0°C0%0hPa0V00:00:0000:00:0000:00:00
WB7NNF2026-08-30 19:16:5447.48568-116.9126186°51km/h14493m-6.4m/s-51.4°C0%0hPa0V00:00:0000:00:0000:00:00
WB7NNF2026-08-30 19:16:3447.48551-116.9160796°40km/h14631m-6.6m/s-51.2°C0%0hPa0V00:00:0000:00:0000:00:00
WB7NNF2026-08-30 19:16:1347.48541-116.9199083°53km/h14768m-7.1m/s-51.3°C0%0hPa0V00:00:0000:00:0000:00:00
WB7NNF2026-08-30 19:15:5347.48516-116.9248389°71km/h14918m-7.2m/s-50.5°C0%0hPa0V00:00:0000:00:0000:00:00
WB7NNF2026-08-30 19:15:3247.48536-116.92896106°55km/h15063m-7.1m/s-50.2°C0%0hPa0V00:00:0000:00:0000:00:00
WB7NNF2026-08-30 19:15:1247.48586-116.9330196°42km/h15215m-7.0m/s-50.0°C0%0hPa0V00:00:0000:00:0000:00:00
WB7NNF2026-08-30 19:14:5147.48618-116.9357599°33km/h15362m-6.9m/s-50.1°C0%0hPa0V00:00:0000:00:0000:00:00
WB7NNF2026-08-30 19:14:3047.48589-116.9374382°24km/h15502m-7.0m/s-50.5°C0%0hPa0V00:00:0000:00:0000:00:00
WB7NNF2026-08-30 19:14:1047.48523-116.9395258°27km/h15650m-7.2m/s-51.8°C0%0hPa0V00:00:0000:00:0000:00:00
WB7NNF2026-08-30 19:13:4947.48449-116.9419949°40km/h15794m-7.1m/s-51.6°C0%0hPa0V00:00:0000:00:0000:00:00
WB7NNF2026-08-30 19:13:2947.48345-116.9440667°33km/h15946m-7.3m/s-51.8°C0%0hPa0V00:00:0000:00:0000:00:00
WB7NNF2026-08-30 19:13:0847.48299-116.9460886°24km/h16096m-7.6m/s-51.6°C0%0hPa0V00:00:0000:00:0000:00:00
WB7NNF2026-08-30 19:12:4847.48227-116.9482355°33km/h16253m-7.3m/s-51.6°C0%0hPa0V00:00:0000:00:0000:00:00
WB7NNF2026-08-30 19:12:2747.48151-116.9505547°42km/h16405m-7.4m/s-51.2°C0%0hPa0V00:00:0000:00:0000:00:00
WB7NNF2026-08-30 19:12:0747.48010-116.9531664°44km/h16568m-7.6m/s-51.6°C0%0hPa0V00:00:0000:00:0000:00:00
WB7NNF2026-08-30 19:11:4647.47953-116.9553883°37km/h16721m-7.5m/s-51.4°C0%0hPa0V00:00:0000:00:0000:00:00
WB7NNF2026-08-30 19:11:2647.47916-116.9571782°24km/h16885m-7.7m/s-50.9°C0%0hPa0V00:00:0000:00:0000:00:00
WB7NNF2026-08-30 19:11:0547.47859-116.9586251°13km/h17043m-7.9m/s-50.6°C0%0hPa0V00:00:0000:00:0000:00:00
WB7NNF2026-08-30 19:10:4547.47792-116.9602348°29km/h17209m-7.8m/s-51.1°C0%0hPa0V00:00:0000:00:0000:00:00
WB7NNF2026-08-30 19:10:2447.47717-116.9619662°35km/h17366m-8.0m/s-49.9°C0%0hPa0V00:00:0000:00:0000:00:00
WB7NNF2026-08-30 19:10:0447.47640-116.9639077°31km/h17533m-7.8m/s-50.8°C0%0hPa0V00:00:0000:00:0000:00:00
WB7NNF2026-08-30 19:09:4347.47546-116.9661444°38km/h17701m-8.0m/s-51.1°C0%0hPa0V00:00:0000:00:0000:00:00
WB7NNF2026-08-30 19:09:2247.47467-116.9678972°29km/h17862m-8.0m/s-51.5°C0%0hPa0V00:00:0000:00:0000:00:00
WB7NNF2026-08-30 19:08:4047.47306-116.96853353°38km/h18227m-8.7m/s-52.1°C0%0hPa0V00:00:0000:00:0000:00:00
WB7NNF2026-08-30 19:08:1947.47152-116.9687223°40km/h18411m-8.8m/s-52.0°C0%0hPa0V00:00:0000:00:0000:00:00
WB7NNF2026-08-30 19:07:5847.46981-116.9697432°46km/h18592m-9.1m/s-53.0°C0%0hPa0V00:00:0000:00:0000:00:00
WB7NNF2026-08-30 19:07:3847.46767-116.9713733°40km/h18786m-9.1m/s-52.9°C0%0hPa0V00:00:0000:00:0000:00:00
WB7NNF2026-08-30 19:07:1647.46627-116.9736243°24km/h18993m-9.7m/s-52.5°C0%0hPa0V00:00:0000:00:0000:00:00
WB7NNF2026-08-30 19:06:5547.46583-116.9750772°26km/h19194m-9.6m/s-52.4°C0%0hPa0V00:00:0000:00:0000:00:00
WB7NNF2026-08-30 19:06:3447.46523-116.9762788°22km/h19386m-9.6m/s-52.2°C0%0hPa0V00:00:0000:00:0000:00:00
WB7NNF2026-08-30 19:06:1447.46505-116.97816111°22km/h19590m-9.7m/s-52.2°C0%0hPa0V00:00:0000:00:0000:00:00
WB7NNF2026-08-30 19:05:5347.46546-116.97899203°20km/h19787m-9.5m/s-51.2°C0%0hPa0V00:00:0000:00:0000:00:00
WB7NNF2026-08-30 19:05:3347.46574-116.97837240°15km/h19992m-9.8m/s-51.2°C0%0hPa0V00:00:0000:00:0000:00:00
WB7NNF2026-08-30 19:05:1247.46564-116.97723245°9km/h20190m-10.1m/s-51.5°C0%0hPa0V00:00:0000:00:0000:00:00
WB7NNF2026-08-30 19:04:5247.46511-116.97632341°11km/h20402m-10.1m/s-51.7°C0%0hPa0V00:00:0000:00:0000:00:00
WB7NNF2026-08-30 19:04:3147.46398-116.9760321°27km/h20609m-10.4m/s-52.6°C0%0hPa0V00:00:0000:00:0000:00:00
WB7NNF2026-08-30 19:04:1147.46271-116.9766960°27km/h20828m-10.4m/s-52.5°C0%0hPa0V00:00:0000:00:0000:00:00
WB7NNF2026-08-30 19:03:3047.46232-116.97696247°29km/h21268m-11.0m/s-51.5°C0%0hPa0V00:00:0000:00:0000:00:00
WB7NNF2026-08-30 19:03:0947.46231-116.97513275°18km/h21494m-11.3m/s-52.1°C0%0hPa0V00:00:0000:00:0000:00:00
WB7NNF2026-08-30 19:02:4947.46172-116.97424360°13km/h21736m-11.6m/s-51.6°C0%0hPa0V00:00:0000:00:0000:00:00
WB7NNF2026-08-30 19:02:2847.46163-116.97381257°20km/h21981m-11.3m/s-52.7°C0%0hPa0V00:00:0000:00:0000:00:00
WB7NNF2026-08-30 19:02:0647.46105-116.97284292°15km/h22241m-11.1m/s-51.4°C0%0hPa0V00:00:0000:00:0000:00:00
WB7NNF2026-08-30 19:01:4547.46013-116.97176329°26km/h22484m-11.9m/s-51.8°C0%0hPa0V00:00:0000:00:0000:00:00
WB7NNF2026-08-30 19:01:2547.45853-116.9715215°24km/h22741m-12.6m/s-51.0°C0%0hPa0V00:00:0000:00:0000:00:00
WB7NNF2026-08-30 19:01:0447.45745-116.97127358°27km/h22991m-12.0m/s-50.2°C0%0hPa0V00:00:0000:00:0000:00:00
WB7NNF2026-08-30 19:00:4447.45578-116.9713014°24km/h23262m-12.6m/s-49.4°C0%0hPa0V00:00:0000:00:0000:00:00
WB7NNF2026-08-30 19:00:2347.45410-116.9712431°20km/h23539m-13.2m/s-48.4°C0%0hPa0V00:00:0000:00:0000:00:00
WB7NNF2026-08-30 18:59:4247.45238-116.97120282°24km/h24097m-14.1m/s-48.6°C0%0hPa0V00:00:0000:00:0000:00:00
WB7NNF2026-08-30 18:59:2147.45152-116.96902314°27km/h24383m-14.4m/s-49.9°C0%0hPa0V00:00:0000:00:0000:00:00
WB7NNF2026-08-30 18:59:0147.45056-116.96763287°29km/h24689m-16.7m/s-51.0°C0%0hPa0V00:00:0000:00:0000:00:00
WB7NNF2026-08-30 18:58:4047.44957-116.9672135°22km/h24992m-15.1m/s-50.9°C0%0hPa0V00:00:0000:00:0000:00:00
WB7NNF2026-08-30 18:58:2047.44864-116.9676426km/h25316m-16.2m/s-49.0°C0%0hPa0V00:00:0000:00:0000:00:00
WB7NNF2026-08-30 18:57:5947.44864-116.96969138°20km/h25635m-15.3m/s-48.5°C0%0hPa0V00:00:0000:00:0000:00:00
WB7NNF2026-08-30 18:57:3947.44903-116.9709198°24km/h25975m-16.7m/s-48.0°C0%0hPa0V00:00:0000:00:0000:00:00
WB7NNF2026-08-30 18:57:1847.44802-116.9716531°37km/h26303m-16.2m/s-45.9°C0%0hPa0V00:00:0000:00:0000:00:00
WB7NNF2026-08-30 18:56:5847.44792-116.97292113°13km/h26659m-16.8m/s-45.1°C0%0hPa0V00:00:0000:00:0000:00:00
WB7NNF2026-08-30 18:56:3747.44847-116.97350205°20km/h27003m-17.1m/s-45.1°C0%0hPa0V00:00:0000:00:0000:00:00
WB7NNF2026-08-30 18:56:1747.44867-116.97297130°11km/h27394m-20.4m/s-45.5°C0%0hPa0V00:00:0000:00:0000:00:00
WB7NNF2026-08-30 18:55:5647.44831-116.97273340°29km/h27803m-20.9m/s-44.5°C0%0hPa0V00:00:0000:00:0000:00:00
WB7NNF2026-08-30 18:55:3447.44788-116.97298127°22km/h28228m-20.7m/s-45.2°C0%0hPa0V00:00:0000:00:0000:00:00
WB7NNF2026-08-30 18:55:1447.44774-116.97322262°22km/h28687m-20.4m/s-44.9°C0%0hPa0V00:00:0000:00:0000:00:00
WB7NNF2026-08-30 18:54:5147.44858-116.97354192°31km/h29138m-21.0m/s-42.9°C0%0hPa0V00:00:0000:00:0000:00:00
WB7NNF2026-08-30 18:54:3147.44920-116.97258285°13km/h29572m-20.5m/s-41.8°C0%0hPa0V00:00:0000:00:0000:00:00
WB7NNF2026-08-30 18:54:1047.44906-116.9723039°20km/h30039m-27.3m/s-41.3°C0%0hPa0V00:00:0000:00:0000:00:00
WB7NNF2026-08-30 18:53:4947.44928-116.97202185°42km/h30517m-28.3m/s-41.4°C0%0hPa0V00:00:0000:00:0000:00:00
WB7NNF2026-08-30 18:53:2947.44913-116.9723641°27km/h31043m-25.2m/s-42.2°C0%0hPa0V00:00:0000:00:0000:00:00
WB7NNF2026-08-30 18:53:0847.44783-116.97409116°9km/h31563m-26.3m/s-41.4°C0%0hPa0V00:00:0000:00:0000:00:00
WB7NNF2026-08-30 18:52:4847.44782-116.9750369°16km/h32128m-24.5m/s-39.5°C0%0hPa0V00:00:0000:00:0000:00:00
WB7NNF2026-08-30 18:52:2747.44699-116.97503318°40km/h32699m-27.5m/s-36.9°C0%0hPa0V00:00:0000:00:0000:00:00
WB7NNF2026-08-30 18:52:0747.44616-116.9745321°47km/h33299m-26.0m/s-36.4°C0%0hPa0V00:00:0000:00:0000:00:00
WB7NNF2026-08-30 18:51:4647.44607-116.97579142°64km/h33900m-29.7m/s-36.5°C0%0hPa0V00:00:0000:00:0000:00:00
WB7NNF2026-08-30 18:51:2547.44675-116.9775477°37km/h34547m-32.0m/s-37.3°C0%0hPa0V00:00:0000:00:0000:00:00
WB7NNF2026-08-30 18:51:0547.44690-116.97932128°20km/h34703m9.2m/s-37.5°C0%0hPa0V00:00:0000:00:0000:00:00
WB7NNF2026-08-30 18:50:4447.44784-116.98068183°46km/h34568m2.4m/s-37.2°C0%0hPa0V00:00:0000:00:0000:00:00
WB7NNF2026-08-30 18:50:2447.44885-116.9818690°46km/h34428m9.4m/s-36.8°C0%0hPa0V00:00:0000:00:0000:00:00
WB7NNF2026-08-30 18:50:0347.44927-116.9824583°33km/h34292m3.7m/s-37.1°C0%0hPa0V00:00:0000:00:0000:00:00
WB7NNF2026-08-30 18:49:4147.45022-116.98340125°24km/h34142m9.4m/s-36.9°C0%0hPa0V00:00:0000:00:0000:00:00
WB7NNF2026-08-30 18:49:2047.45098-116.9858291°49km/h33991m2.6m/s-37.3°C0%0hPa0V00:00:0000:00:0000:00:00
WB7NNF2026-08-30 18:49:0047.45150-116.98839163°46km/h33838m7.8m/s-36.6°C0%0hPa0V00:00:0000:00:0000:00:00
WB7NNF2026-08-30 18:48:3947.45163-116.9909767°44km/h33701m10.1m/s-36.8°C0%0hPa0V00:00:0000:00:0000:00:00
WB7NNF2026-08-30 18:48:1947.45101-116.9928483°51km/h33551m8.5m/s-37.0°C0%0hPa0V00:00:0000:00:0000:00:00
WB7NNF2026-08-30 18:47:5847.45042-116.99311323°49km/h33406m8.7m/s-36.5°C0%0hPa0V00:00:0000:00:0000:00:00
WB7NNF2026-08-30 18:47:3647.45002-116.99200162°27km/h33260m4.4m/s-36.2°C0%0hPa0V00:00:0000:00:0000:00:00
WB7NNF2026-08-30 18:47:1247.44972-116.99088318°11km/h33111m9.8m/s-37.3°C0%0hPa0V00:00:0000:00:0000:00:00
WB7NNF2026-08-30 18:46:5147.44899-116.9904611°13km/h32975m5.5m/s-37.7°C0%0hPa0V00:00:0000:00:0000:00:00
WB7NNF2026-08-30 18:46:3147.44782-116.9902336°46km/h32836m9.2m/s-38.2°C0%0hPa0V00:00:0000:00:0000:00:00
WB7NNF2026-08-30 18:46:1047.44720-116.98963208°31km/h32696m-5.6m/s-39.0°C0%0hPa0V00:00:0000:00:0000:00:00
WB7NNF2026-08-30 18:45:4947.44670-116.98885351°51km/h32566m5.4m/s-40.2°C0%0hPa0V00:00:0000:00:0000:00:00
WB7NNF2026-08-30 18:45:2947.44592-116.98914173°18km/h32430m7.7m/s-40.8°C0%0hPa0V00:00:0000:00:0000:00:00
WB7NNF2026-08-30 18:45:0747.44512-116.9906563°42km/h32293m2.9m/s-40.9°C0%0hPa0V00:00:0000:00:0000:00:00
WB7NNF2026-08-30 18:44:4647.44447-116.9918442°13km/h32146m4.5m/s-41.2°C0%0hPa0V00:00:0000:00:0000:00:00
WB7NNF2026-08-30 18:44:2447.44424-116.99249151°18km/h31999m3.4m/s-41.8°C0%0hPa0V00:00:0000:00:0000:00:00
WB7NNF2026-08-30 18:44:0347.44469-116.99260257°5km/h31852m5.8m/s-42.1°C0%0hPa0V00:00:0000:00:0000:00:00
WB7NNF2026-08-30 18:43:4347.44570-116.99274153°57km/h31712m4.0m/s-41.8°C0%0hPa0V00:00:0000:00:0000:00:00
WB7NNF2026-08-30 18:43:2247.44619-116.99383338°35km/h31566m3.3m/s-42.1°C0%0hPa0V00:00:0000:00:0000:00:00
WB7NNF2026-08-30 18:43:0147.44570-116.9954986°38km/h31426m8.7m/s-41.0°C0%0hPa0V00:00:0000:00:0000:00:00
WB7NNF2026-08-30 18:42:4147.44456-116.9972812°75km/h31279m8.2m/s-41.8°C0%0hPa0V00:00:0000:00:0000:00:00
WB7NNF2026-08-30 18:42:1947.44230-116.9986722°47km/h31124m7.4m/s-42.3°C0%0hPa0V00:00:0000:00:0000:00:00
WB7NNF2026-08-30 18:41:5847.44040-116.9994328°40km/h30982m-3.4m/s0°C0%0hPa0V00:00:0000:00:0000:00:00
WB7NNF2026-08-30 18:41:3047.43982-116.99969202°33km/h30796m3.3m/s-41.5°C0%0hPa0V00:00:0000:00:0000:00:00
WB7NNF2026-08-30 18:41:1047.44020-116.99959130°35km/h30651m10.6m/s-41.2°C0%0hPa0V00:00:0000:00:0000:00:00
WB7NNF2026-08-30 18:40:4947.44113-116.9992184°38km/h30514m6.1m/s-42.0°C0%0hPa0V00:00:0000:00:0000:00:00
WB7NNF2026-08-30 18:40:2847.44104-116.99890357°29km/h30391m6.4m/s-42.5°C0%0hPa0V00:00:0000:00:0000:00:00
WB7NNF2026-08-30 18:40:0847.44129-116.99839284°13km/h30243m9.6m/s-42.4°C0%0hPa0V00:00:0000:00:0000:00:00
WB7NNF2026-08-30 18:39:4747.44184-116.99819265°15km/h30104m6.0m/s-42.0°C0%0hPa0V00:00:0000:00:0000:00:00
WB7NNF2026-08-30 18:39:2747.44179-116.99780134°29km/h29962m11.0m/s-42.3°C0%0hPa0V00:00:0000:00:0000:00:00
WB7NNF2026-08-30 18:39:0647.44231-116.9976011°53km/h29824m8.1m/s-42.8°C0%0hPa0V00:00:0000:00:0000:00:00
WB7NNF2026-08-30 18:38:4447.44196-116.99756140°35km/h29681m1.6m/s-43.4°C0%0hPa0V00:00:0000:00:0000:00:00
WB7NNF2026-08-30 18:38:2147.44144-116.9969211°49km/h29533m3.2m/s-44.8°C0%0hPa0V00:00:0000:00:0000:00:00
WB7NNF2026-08-30 18:38:0147.44188-116.99595224°33km/h29392m5.3m/s-45.2°C0%0hPa0V00:00:0000:00:0000:00:00
WB7NNF2026-08-30 18:37:3947.44333-116.99586223°46km/h29251m15.7m/s-45.4°C0%0hPa0V00:00:0000:00:0000:00:00
WB7NNF2026-08-30 18:37:1847.44464-116.99640261°18km/h29105m-0.5m/s-45.9°C0%0hPa0V00:00:0000:00:0000:00:00
WB7NNF2026-08-30 18:36:3647.44512-116.99730320°29km/h28843m2.5m/s-46.6°C0%0hPa0V00:00:0000:00:0000:00:00
WB7NNF2026-08-30 18:36:1547.44477-116.99682336°40km/h28715m1.6m/s-46.7°C0%0hPa0V00:00:0000:00:0000:00:00
WB7NNF2026-08-30 18:35:5447.44452-116.99632178°35km/h28562m11.1m/s-46.8°C0%0hPa0V00:00:0000:00:0000:00:00
WB7NNF2026-08-30 18:35:3347.44470-116.9962574°7km/h28432m3.5m/s-46.3°C0%0hPa0V00:00:0000:00:0000:00:00
WB7NNF2026-08-30 18:35:1347.44484-116.9973274°58km/h28298m8.0m/s-46.6°C0%0hPa0V00:00:0000:00:0000:00:00
WB7NNF2026-08-30 18:34:5247.44430-116.9981431°24km/h28164m9.9m/s-46.2°C0%0hPa0V00:00:0000:00:0000:00:00
WB7NNF2026-08-30 18:34:3247.44357-116.99812337°46km/h28029m12.6m/s-45.8°C0%0hPa0V00:00:0000:00:0000:00:00
WB7NNF2026-08-30 18:34:1147.44301-116.9971261°16km/h27903m8.5m/s-45.8°C0%0hPa0V00:00:0000:00:0000:00:00
WB7NNF2026-08-30 18:33:4747.44236-116.99575124°35km/h27737m7.9m/s-45.9°C0%0hPa0V00:00:0000:00:0000:00:00
WB7NNF2026-08-30 18:33:2547.44212-116.99522324°26km/h27591m8.8m/s-45.7°C0%0hPa0V00:00:0000:00:0000:00:00
WB7NNF2026-08-30 18:33:0547.44194-116.99525263°33km/h27453m9.8m/s-46.1°C0%0hPa0V00:00:0000:00:0000:00:00
WB7NNF2026-08-30 18:32:4447.44171-116.99505110°44km/h27326m7.8m/s-46.2°C0%0hPa0V00:00:0000:00:0000:00:00
WB7NNF2026-08-30 18:32:2347.44183-116.99465109°33km/h27203m7.8m/s-46.4°C0%0hPa0V00:00:0000:00:0000:00:00
WB7NNF2026-08-30 18:32:0347.44223-116.9946034°15km/h27077m7.1m/s-46.2°C0%0hPa0V00:00:0000:00:0000:00:00
WB7NNF2026-08-30 18:31:4247.44276-116.99532230°40km/h26938m9.5m/s-46.8°C0%0hPa0V00:00:0000:00:0000:00:00
WB7NNF2026-08-30 18:31:2147.44301-116.99619220°38km/h26808m7.2m/s-47.1°C0%0hPa0V00:00:0000:00:0000:00:00
WB7NNF2026-08-30 18:31:0147.44334-116.99677152°26km/h26684m6.3m/s-46.9°C0%0hPa0V00:00:0000:00:0000:00:00
WB7NNF2026-08-30 18:30:3947.44355-116.9978369°27km/h26555m14.1m/s-47.5°C0%0hPa0V00:00:0000:00:0000:00:00
WB7NNF2026-08-30 18:30:1847.44301-116.99940119°22km/h26423m1.8m/s-48.1°C0%0hPa0V00:00:0000:00:0000:00:00
WB7NNF2026-08-30 18:29:5747.44173-117.0007465°22km/h26298m-1.2m/s-48.4°C0%0hPa0V00:00:0000:00:0000:00:00
WB7NNF2026-08-30 18:29:3747.44030-117.0015955km/h26164m8.1m/s-49.0°C0%0hPa0V00:00:0000:00:0000:00:00
WB7NNF2026-08-30 18:29:1647.43964-117.00151246°44km/h26041m0.8m/s-49.5°C0%0hPa0V00:00:0000:00:0000:00:00
WB7NNF2026-08-30 18:28:5647.43997-117.00192131°22km/h25905m7.3m/s-49.8°C0%0hPa0V00:00:0000:00:0000:00:00
WB7NNF2026-08-30 18:28:3547.43997-117.00303119°60km/h25781m-1.5m/s-49.2°C0%0hPa0V00:00:0000:00:0000:00:00
WB7NNF2026-08-30 18:28:1547.43997-117.0046237°35km/h25654m11.7m/s-49.1°C0%0hPa0V00:00:0000:00:0000:00:00
WB7NNF2026-08-30 18:27:5447.43995-117.00685147°18km/h25512m8.8m/s-49.3°C0%0hPa0V00:00:0000:00:0000:00:00
WB7NNF2026-08-30 18:27:3347.43940-117.0086024°68km/h25380m0.0m/s-49.5°C0%0hPa0V00:00:0000:00:0000:00:00
WB7NNF2026-08-30 18:27:1247.43859-117.0096435°49km/h25265m7.4m/s-50.6°C0%0hPa0V00:00:0000:00:0000:00:00
WB7NNF2026-08-30 18:26:5147.43769-117.01020294°27km/h25128m2.2m/s-50.5°C0%0hPa0V00:00:0000:00:0000:00:00
WB7NNF2026-08-30 18:26:3047.43634-117.0093131°49km/h25002m4.4m/s-50.6°C0%0hPa0V00:00:0000:00:0000:00:00
WB7NNF2026-08-30 18:26:1047.43505-117.00827268°24km/h24877m9.9m/s-50.8°C0%0hPa0V00:00:0000:00:0000:00:00
WB7NNF2026-08-30 18:25:4947.43379-117.00725347°58km/h24759m0.6m/s-50.8°C0%0hPa0V00:00:0000:00:0000:00:00
WB7NNF2026-08-30 18:25:2947.43297-117.00671241°38km/h24637m1.5m/s-50.3°C0%0hPa0V00:00:0000:00:0000:00:00
WB7NNF2026-08-30 18:25:0847.43231-117.00600329°29km/h24519m9.3m/s-50.7°C0%0hPa0V00:00:0000:00:0000:00:00
WB7NNF2026-08-30 18:24:4847.43106-117.0050284°16km/h24395m6.4m/s-50.6°C0%0hPa0V00:00:0000:00:0000:00:00
WB7NNF2026-08-30 18:24:2747.43038-117.00310243°33km/h24282m1.3m/s-50.7°C0%0hPa0V00:00:0000:00:0000:00:00
WB7NNF2026-08-30 18:24:0747.42983-117.00143347°47km/h24149m9.3m/s-50.4°C0%0hPa0V00:00:0000:00:0000:00:00
WB7NNF2026-08-30 18:23:4747.42932-117.0006859°26km/h24029m0.2m/s-49.7°C0%0hPa0V00:00:0000:00:0000:00:00
WB7NNF2026-08-30 18:23:2647.42871-117.00056158°24km/h23904m9.6m/s-49.5°C0%0hPa0V00:00:0000:00:0000:00:00
WB7NNF2026-08-30 18:23:0547.42793-117.00079308°26km/h23791m5.6m/s-50.1°C0%0hPa0V00:00:0000:00:0000:00:00
WB7NNF2026-08-30 18:22:4347.42682-117.00089285°44km/h23660m-0.3m/s-50.5°C0%0hPa0V00:00:0000:00:0000:00:00
WB7NNF2026-08-30 18:22:2247.42545-117.00034358°47km/h23541m6.3m/s-50.4°C0%0hPa0V00:00:0000:00:0000:00:00
WB7NNF2026-08-30 18:21:4147.42250-116.9985443°44km/h23295m9.5m/s-50.9°C0%0hPa0V00:00:0000:00:0000:00:00
WB7NNF2026-08-30 18:21:1947.42108-116.9980557km/h23168m3.0m/s-51.3°C0%0hPa0V00:00:0000:00:0000:00:00
WB7NNF2026-08-30 18:20:5847.42005-116.99709229°40km/h23044m3.5m/s-51.7°C0%0hPa0V00:00:0000:00:0000:00:00
WB7NNF2026-08-30 18:20:3847.41903-116.9955613°47km/h22939m6.7m/s-51.7°C0%0hPa0V00:00:0000:00:0000:00:00
WB7NNF2026-08-30 18:20:1747.41824-116.99505283°5km/h22829m3.7m/s-51.9°C0%0hPa0V00:00:0000:00:0000:00:00
WB7NNF2026-08-30 18:19:5747.41705-116.9946527°44km/h22692m4.9m/s-52.4°C0%0hPa0V00:00:0000:00:0000:00:00
WB7NNF2026-08-30 18:19:3647.41572-116.99397315°53km/h22575m2.8m/s-52.7°C0%0hPa0V00:00:0000:00:0000:00:00
WB7NNF2026-08-30 18:18:5347.41389-116.99088305°22km/h22315m7.8m/s-51.7°C0%0hPa0V00:00:0000:00:0000:00:00
WB7NNF2026-08-30 18:18:3247.41373-116.99005289°4km/h22194m4.1m/s-52.2°C0%0hPa0V00:00:0000:00:0000:00:00
WB7NNF2026-08-30 18:18:1247.41311-116.98912292°51km/h22059m2.4m/s-52.6°C0%0hPa0V00:00:0000:00:0000:00:00
WB7NNF2026-08-30 18:17:5147.41326-116.98807165°38km/h21944m1.3m/s-53.0°C0%0hPa0V00:00:0000:00:0000:00:00
WB7NNF2026-08-30 18:17:2947.41387-116.98735159°18km/h21829m5.6m/s-52.5°C0%0hPa0V00:00:0000:00:0000:00:00
WB7NNF2026-08-30 18:16:4847.41455-116.98683227°7km/h21594m7.7m/s-51.4°C0%0hPa0V00:00:0000:00:0000:00:00
WB7NNF2026-08-30 18:16:2647.41436-116.98589267°33km/h21474m0.5m/s-51.6°C0%0hPa0V00:00:0000:00:0000:00:00
WB7NNF2026-08-30 18:16:0547.41404-116.9847434°15km/h21362m4.4m/s-51.9°C0%0hPa0V00:00:0000:00:0000:00:00
WB7NNF2026-08-30 18:15:4347.41444-116.98330220°40km/h21242m3.4m/s-51.8°C0%0hPa0V00:00:0000:00:0000:00:00
WB7NNF2026-08-30 18:15:2347.41465-116.9826651°40km/h21125m3.8m/s-52.7°C0%0hPa0V00:00:0000:00:0000:00:00
WB7NNF2026-08-30 18:14:4147.41409-116.98376341°20km/h20890m9.6m/s-53.1°C0%0hPa0V00:00:0000:00:0000:00:00
WB7NNF2026-08-30 18:14:2047.41334-116.9844991°27km/h20783m0.9m/s-53.2°C0%0hPa0V00:00:0000:00:0000:00:00
WB7NNF2026-08-30 18:14:0047.41186-116.98548338°35km/h20661m6.0m/s-53.6°C0%0hPa0V00:00:0000:00:0000:00:00
WB7NNF2026-08-30 18:13:3947.41065-116.98574258°15km/h20545m0.2m/s-53.0°C0%0hPa0V00:00:0000:00:0000:00:00
WB7NNF2026-08-30 18:13:1947.40976-116.9851423°16km/h20430m1.8m/s-52.6°C0%0hPa0V00:00:0000:00:0000:00:00
WB7NNF2026-08-30 18:12:5847.40928-116.9841434°26km/h20310m8.9m/s-52.6°C0%0hPa0V00:00:0000:00:0000:00:00
WB7NNF2026-08-30 18:12:3747.40907-116.98389282°38km/h20192m10.1m/s-53.0°C0%0hPa0V00:00:0000:00:0000:00:00
WB7NNF2026-08-30 18:12:1747.40928-116.98343124°15km/h20079m8.2m/s-52.9°C0%0hPa0V00:00:0000:00:0000:00:00
WB7NNF2026-08-30 18:11:5547.40979-116.98310292°24km/h19971m8.4m/s-52.6°C0%0hPa0V00:00:0000:00:0000:00:00
WB7NNF2026-08-30 18:11:3447.41042-116.98338126°58km/h19853m7.0m/s-53.1°C0%0hPa0V00:00:0000:00:0000:00:00
WB7NNF2026-08-30 18:11:1447.41072-116.98489188°26km/h19746m0.3m/s-53.3°C0%0hPa0V00:00:0000:00:0000:00:00
WB7NNF2026-08-30 18:10:5347.41063-116.9868898°42km/h19641m5.3m/s-54.0°C0%0hPa0V00:00:0000:00:0000:00:00
WB7NNF2026-08-30 18:10:3347.41029-116.9887068°46km/h19529m8.2m/s-53.6°C0%0hPa0V00:00:0000:00:0000:00:00
WB7NNF2026-08-30 18:10:1247.40975-116.9899128°11km/h19428m6.0m/s-54.2°C0%0hPa0V00:00:0000:00:0000:00:00
WB7NNF2026-08-30 18:09:5247.40919-116.9901735°40km/h19315m0.4m/s-54.3°C0%0hPa0V00:00:0000:00:0000:00:00
WB7NNF2026-08-30 18:09:3147.40878-116.99057164°24km/h19210m7.4m/s-54.2°C0%0hPa0V00:00:0000:00:0000:00:00
WB7NNF2026-08-30 18:09:1147.40855-116.99141324°26km/h19100m6.1m/s-53.8°C0%0hPa0V00:00:0000:00:0000:00:00
WB7NNF2026-08-30 18:08:5047.40809-116.9925666°51km/h18997m8.5m/s-54.1°C0%0hPa0V00:00:0000:00:0000:00:00
WB7NNF2026-08-30 18:08:3047.40697-116.9940372°24km/h18882m2.4m/s-54.0°C0%0hPa0V00:00:0000:00:0000:00:00
WB7NNF2026-08-30 18:08:0947.40506-116.9954811km/h18768m5.7m/s-54.5°C0%0hPa0V00:00:0000:00:0000:00:00
WB7NNF2026-08-30 18:07:4747.40307-116.99622344°46km/h18659m7.1m/s-54.1°C0%0hPa0V00:00:0000:00:0000:00:00
WB7NNF2026-08-30 18:07:2747.40137-116.9967714°64km/h18548m1.6m/s-53.3°C0%0hPa0V00:00:0000:00:0000:00:00
WB7NNF2026-08-30 18:07:0647.39980-116.9971341°35km/h18447m2.5m/s-52.6°C0%0hPa0V00:00:0000:00:0000:00:00
WB7NNF2026-08-30 18:06:4547.39835-116.9972637°15km/h18338m7.0m/s-52.3°C0%0hPa0V00:00:0000:00:0000:00:00
WB7NNF2026-08-30 18:06:2547.39733-116.99702339°20km/h18233m7.3m/s-52.4°C0%0hPa0V00:00:0000:00:0000:00:00
WB7NNF2026-08-30 18:06:0447.39646-116.99649344°31km/h18132m8.3m/s-52.3°C0%0hPa0V00:00:0000:00:0000:00:00
WB7NNF2026-08-30 18:05:4447.39608-116.99590360°16km/h18020m4.5m/s-52.0°C0%0hPa0V00:00:0000:00:0000:00:00
WB7NNF2026-08-30 18:05:2347.39601-116.9961572°18km/h17904m5.4m/s-51.7°C0%0hPa0V00:00:0000:00:0000:00:00
WB7NNF2026-08-30 18:05:0147.39564-116.9972599°49km/h17791m2.5m/s-51.0°C0%0hPa0V00:00:0000:00:0000:00:00
WB7NNF2026-08-30 18:04:4047.39514-116.9992286°60km/h17674m1.6m/s-51.3°C0%0hPa0V00:00:0000:00:0000:00:00
WB7NNF2026-08-30 18:04:1947.39413-117.0018252°27km/h17569m2.2m/s-51.5°C0%0hPa0V00:00:0000:00:0000:00:00
WB7NNF2026-08-30 18:03:5947.39288-117.0046325°29km/h17458m8.6m/s-51.2°C0%0hPa0V00:00:0000:00:0000:00:00
WB7NNF2026-08-30 18:03:3847.39174-117.0068566°75km/h17352m5.0m/s-50.9°C0%0hPa0V00:00:0000:00:0000:00:00
WB7NNF2026-08-30 18:03:1847.39085-117.0090156°15km/h17249m1.6m/s-52.0°C0%0hPa0V00:00:0000:00:0000:00:00
WB7NNF2026-08-30 18:02:5747.38993-117.0109037°35km/h17150m4.4m/s-52.5°C0%0hPa0V00:00:0000:00:0000:00:00
WB7NNF2026-08-30 18:02:3747.38905-117.0130837°58km/h17045m3.4m/s-51.9°C0%0hPa0V00:00:0000:00:0000:00:00
WB7NNF2026-08-30 18:02:1547.38827-117.0147537°53km/h16941m0.9m/s-51.4°C0%0hPa0V00:00:0000:00:0000:00:00
WB7NNF2026-08-30 18:01:5447.38762-117.01694101°24km/h16842m6.7m/s-51.5°C0%0hPa0V00:00:0000:00:0000:00:00
WB7NNF2026-08-30 18:01:3247.38750-117.01897105°37km/h16718m4.4m/s-51.8°C0%0hPa0V00:00:0000:00:0000:00:00
WB7NNF2026-08-30 18:01:0947.38742-117.0216782°13km/h16613m6.8m/s-52.1°C0%0hPa0V00:00:0000:00:0000:00:00
WB7NNF2026-08-30 18:00:2547.38563-117.0264452°20km/h16373m3.8m/s-51.5°C0%0hPa0V00:00:0000:00:0000:00:00
WB7NNF2026-08-30 18:00:0247.38424-117.0289384°24km/h16260m5.9m/s-50.8°C0%0hPa0V00:00:0000:00:0000:00:00
WB7NNF2026-08-30 17:59:4047.38345-117.0313262°22km/h16152m5.0m/s-51.9°C0%0hPa0V00:00:0000:00:0000:00:00
WB7NNF2026-08-30 17:59:1747.38251-117.0335674°47km/h16043m4.5m/s-51.5°C0%0hPa0V00:00:0000:00:0000:00:00
WB7NNF2026-08-30 17:58:5747.38149-117.0354547°24km/h15941m4.9m/s-51.0°C0%0hPa0V00:00:0000:00:0000:00:00
WB7NNF2026-08-30 17:58:3647.38100-117.0379238°16km/h15844m7.6m/s-51.5°C0%0hPa0V00:00:0000:00:0000:00:00
WB7NNF2026-08-30 17:58:1547.38042-117.0402971°27km/h15741m5.9m/s-51.6°C0%0hPa0V00:00:0000:00:0000:00:00
WB7NNF2026-08-30 17:57:5547.37976-117.0431067°31km/h15637m7.4m/s-52.3°C0%0hPa0V00:00:0000:00:0000:00:00
WB7NNF2026-08-30 17:57:3347.37932-117.0459052°24km/h15530m5.9m/s-52.4°C0%0hPa0V00:00:0000:00:0000:00:00
WB7NNF2026-08-30 17:57:1247.37898-117.0482482°35km/h15428m6.7m/s-52.2°C0%0hPa0V00:00:0000:00:0000:00:00
WB7NNF2026-08-30 17:56:5047.37838-117.0508267°35km/h15329m4.9m/s-51.7°C0%0hPa0V00:00:0000:00:0000:00:00
WB7NNF2026-08-30 17:56:2947.37803-117.0540590°40km/h15224m5.2m/s-51.2°C0%0hPa0V00:00:0000:00:0000:00:00
WB7NNF2026-08-30 17:56:0747.37786-117.05702137°35km/h15124m3.0m/s-50.9°C0%0hPa0V00:00:0000:00:0000:00:00
WB7NNF2026-08-30 17:55:4647.37766-117.06008114°31km/h15029m6.6m/s-50.9°C0%0hPa0V00:00:0000:00:0000:00:00
WB7NNF2026-08-30 17:55:2647.37762-117.0630483°62km/h14928m3.3m/s-51.5°C0%0hPa0V00:00:0000:00:0000:00:00
WB7NNF2026-08-30 17:55:0547.37749-117.0670282°66km/h14828m3.1m/s-52.2°C0%0hPa0V00:00:0000:00:0000:00:00
WB7NNF2026-08-30 17:54:4347.37742-117.0706396°26km/h14723m4.4m/s-52.2°C0%0hPa0V00:00:0000:00:0000:00:00
WB7NNF2026-08-30 17:54:2247.37748-117.07377110°44km/h14618m3.7m/s-52.8°C0%0hPa0V00:00:0000:00:0000:00:00
WB7NNF2026-08-30 17:53:4147.37766-117.07986102°47km/h14422m6.1m/s-53.1°C0%0hPa0V00:00:0000:00:0000:00:00
WB7NNF2026-08-30 17:53:2147.37788-117.0834294°35km/h14324m5.4m/s-52.6°C0%0hPa0V00:00:0000:00:0000:00:00
WB7NNF2026-08-30 17:53:0047.37869-117.08659119°68km/h14226m4.3m/s-52.5°C0%0hPa0V00:00:0000:00:0000:00:00
WB7NNF2026-08-30 17:52:4047.38001-117.09047116°73km/h14129m3.4m/s-52.4°C0%0hPa0V00:00:0000:00:0000:00:00
WB7NNF2026-08-30 17:52:1947.38119-117.09468111°64km/h14031m4.9m/s-53.1°C0%0hPa0V00:00:0000:00:0000:00:00
WB7NNF2026-08-30 17:51:5847.38222-117.09885118°64km/h13939m3.7m/s-53.2°C0%0hPa0V00:00:0000:00:0000:00:00
WB7NNF2026-08-30 17:51:3847.38299-117.10295118°60km/h13844m5.2m/s-53.5°C0%0hPa0V00:00:0000:00:0000:00:00
WB7NNF2026-08-30 17:51:1747.38397-117.10630106°60km/h13753m3.2m/s-52.9°C0%0hPa0V00:00:0000:00:0000:00:00
WB7NNF2026-08-30 17:50:5747.38483-117.1097786°57km/h13652m4.7m/s-52.1°C0%0hPa0V00:00:0000:00:0000:00:00
WB7NNF2026-08-30 17:50:3647.38592-117.11309113°68km/h13542m2.2m/s-51.6°C0%0hPa0V00:00:0000:00:0000:00:00
WB7NNF2026-08-30 17:50:1647.38705-117.11703113°62km/h13448m3.7m/s-51.6°C0%0hPa0V00:00:0000:00:0000:00:00
WB7NNF2026-08-30 17:49:5547.38814-117.12083109°68km/h13351m4.2m/s-51.4°C0%0hPa0V00:00:0000:00:0000:00:00
WB7NNF2026-08-30 17:49:3547.38958-117.12497137°62km/h13246m5.8m/s-51.1°C0%0hPa0V00:00:0000:00:0000:00:00
WB7NNF2026-08-30 17:49:1447.39086-117.12900122°68km/h13147m6.8m/s-50.7°C0%0hPa0V00:00:0000:00:0000:00:00
WB7NNF2026-08-30 17:48:5447.39213-117.13326122°82km/h13043m4.9m/s-50.7°C0%0hPa0V00:00:0000:00:0000:00:00
WB7NNF2026-08-30 17:48:3347.39352-117.13755113°68km/h12939m5.7m/s-50.5°C0%0hPa0V00:00:0000:00:0000:00:00
WB7NNF2026-08-30 17:48:1347.39500-117.14259104°86km/h12836m2.3m/s-50.0°C0%0hPa0V00:00:0000:00:0000:00:00
WB7NNF2026-08-30 17:47:5247.39649-117.14767125°68km/h12742m4.7m/s-50.2°C0%0hPa0V00:00:0000:00:0000:00:00
WB7NNF2026-08-30 17:47:3147.39784-117.15269119°68km/h12631m5.9m/s-50.4°C0%0hPa0V00:00:0000:00:0000:00:00
WB7NNF2026-08-30 17:47:0947.39979-117.15670115°64km/h12540m3.4m/s-51.1°C0%0hPa0V00:00:0000:00:0000:00:00
WB7NNF2026-08-30 17:46:4947.40209-117.16128118°80km/h12446m4.5m/s-51.6°C0%0hPa0V00:00:0000:00:0000:00:00
WB7NNF2026-08-30 17:46:2847.40475-117.16566138°71km/h12357m5.9m/s-51.3°C0%0hPa0V00:00:0000:00:0000:00:00
WB7NNF2026-08-30 17:46:0847.40751-117.16990128°108km/h12265m4.9m/s-52.5°C0%0hPa0V00:00:0000:00:0000:00:00
WB7NNF2026-08-30 17:45:4747.41088-117.17460148°82km/h12170m4.3m/s-53.2°C0%0hPa0V00:00:0000:00:0000:00:00
WB7NNF2026-08-30 17:45:2647.41438-117.17848136°88km/h12083m5.0m/s-52.9°C0%0hPa0V00:00:0000:00:0000:00:00
WB7NNF2026-08-30 17:45:0647.41830-117.18284127°88km/h11991m3.6m/s-53.5°C0%0hPa0V00:00:0000:00:0000:00:00
WB7NNF2026-08-30 17:44:4547.42200-117.18730139°95km/h11902m6.2m/s-53.7°C0%0hPa0V00:00:0000:00:0000:00:00
WB7NNF2026-08-30 17:44:2547.42636-117.19208142°111km/h11812m4.8m/s-53.2°C0%0hPa0V00:00:0000:00:0000:00:00
WB7NNF2026-08-30 17:44:0447.43073-117.19739132°124km/h11717m2.2m/s-53.4°C0%0hPa0V00:00:0000:00:0000:00:00
WB7NNF2026-08-30 17:43:4447.43546-117.20373132°115km/h11611m7.2m/s-54.3°C0%0hPa0V00:00:0000:00:0000:00:00
WB7NNF2026-08-30 17:43:2347.43986-117.20968145°106km/h11519m5.3m/s-54.0°C0%0hPa0V00:00:0000:00:0000:00:00
WB7NNF2026-08-30 17:42:4247.44941-117.22226136°146km/h11308m3.8m/s-52.9°C0%0hPa0V00:00:0000:00:0000:00:00
WB7NNF2026-08-30 17:42:2247.45470-117.22921137°137km/h11220m5.1m/s-52.6°C0%0hPa0V00:00:0000:00:0000:00:00
WB7NNF2026-08-30 17:42:0147.45956-117.23584144°130km/h11138m6.0m/s-52.5°C0%0hPa0V00:00:0000:00:0000:00:00
WB7NNF2026-08-30 17:41:2147.46946-117.24923146°120km/h10976m1.8m/s-51.4°C0%0hPa0V00:00:0000:00:0000:00:00
WB7NNF2026-08-30 17:41:0047.47444-117.25628141°122km/h10896m2.2m/s-50.9°C0%0hPa0V00:00:0000:00:0000:00:00
WB7NNF2026-08-30 17:40:3947.47925-117.26326138°113km/h10812m3.2m/s-50.2°C0%0hPa0V00:00:0000:00:0000:00:00
WB7NNF2026-08-30 17:40:1947.48386-117.27000140°126km/h10731m2.8m/s-49.5°C0%0hPa0V00:00:0000:00:0000:00:00
WB7NNF2026-08-30 17:39:5847.48862-117.27682130°111km/h10644m4.9m/s-49.2°C0%0hPa0V00:00:0000:00:0000:00:00
WB7NNF2026-08-30 17:39:3747.49302-117.28311137°115km/h10562m5.8m/s-48.4°C0%0hPa0V00:00:0000:00:0000:00:00
WB7NNF2026-08-30 17:39:1747.49749-117.28974140°124km/h10461m4.9m/s-47.6°C0%0hPa0V00:00:0000:00:0000:00:00
WB7NNF2026-08-30 17:38:5647.50153-117.29633136°130km/h10378m5.7m/s-47.3°C0%0hPa0V00:00:0000:00:0000:00:00
WB7NNF2026-08-30 17:38:3647.50605-117.30336142°135km/h10287m4.4m/s-46.7°C0%0hPa0V00:00:0000:00:0000:00:00
WB7NNF2026-08-30 17:38:1547.51026-117.31023127°124km/h10199m5.8m/s-45.9°C0%0hPa0V00:00:0000:00:0000:00:00
WB7NNF2026-08-30 17:37:5547.51464-117.31747132°119km/h10104m5.4m/s-45.0°C0%0hPa0V00:00:0000:00:0000:00:00
WB7NNF2026-08-30 17:37:3447.51878-117.32417134°110km/h10007m4.8m/s-44.2°C0%0hPa0V00:00:0000:00:0000:00:00
WB7NNF2026-08-30 17:37:1447.52304-117.33125137°126km/h9907m5.1m/s-43.5°C0%0hPa0V00:00:0000:00:0000:00:00
WB7NNF2026-08-30 17:36:5347.52715-117.33773131°128km/h9814m5.6m/s-42.7°C0%0hPa0V00:00:0000:00:0000:00:00
WB7NNF2026-08-30 17:36:3347.53143-117.34450133°113km/h9714m4.8m/s-41.9°C0%0hPa0V00:00:0000:00:0000:00:00
WB7NNF2026-08-30 17:36:1247.53562-117.35067142°119km/h9618m6.5m/s-41.1°C0%0hPa0V00:00:0000:00:0000:00:00
WB7NNF2026-08-30 17:35:5247.53990-117.35762135°131km/h9468m5.7m/s-40.0°C0%0hPa0V00:00:0000:00:0000:00:00
WB7NNF2026-08-30 17:35:3147.54432-117.36406146°130km/h9359m4.0m/s-39.0°C0%0hPa0V00:00:0000:00:0000:00:00
WB7NNF2026-08-30 17:35:1047.54847-117.36982137°124km/h9267m5.3m/s-38.1°C0%0hPa0V00:00:0000:00:0000:00:00
WB7NNF2026-08-30 17:34:5047.55286-117.37577130°102km/h9174m4.0m/s-37.4°C0%0hPa0V00:00:0000:00:0000:00:00
WB7NNF2026-08-30 17:34:2947.55704-117.38144145°106km/h9084m4.1m/s-36.8°C0%0hPa0V00:00:0000:00:0000:00:00
WB7NNF2026-08-30 17:34:0947.56131-117.38722133°110km/h8991m1.8m/s-36.3°C0%0hPa0V00:00:0000:00:0000:00:00
WB7NNF2026-08-30 17:33:4847.56536-117.39249133°89km/h8902m2.6m/s-35.8°C0%0hPa0V00:00:0000:00:0000:00:00
WB7NNF2026-08-30 17:33:2847.56966-117.39770140°88km/h8817m3.0m/s-35.2°C0%0hPa0V00:00:0000:00:0000:00:00
WB7NNF2026-08-30 17:33:0747.57366-117.40265142°120km/h8740m1.9m/s-34.8°C0%0hPa0V00:00:0000:00:0000:00:00
WB7NNF2026-08-30 17:32:4747.57765-117.40765139°110km/h8654m2.9m/s-34.6°C0%0hPa0V00:00:0000:00:0000:00:00
WB7NNF2026-08-30 17:32:2647.58127-117.41243148°88km/h8564m2.8m/s-33.8°C0%0hPa0V00:00:0000:00:0000:00:00
WB7NNF2026-08-30 17:32:0647.58503-117.41751149°86km/h8477m4.6m/s-33.2°C0%0hPa0V00:00:0000:00:0000:00:00
WB7NNF2026-08-30 17:31:4547.58862-117.42204131°102km/h8397m5.0m/s-32.7°C0%0hPa0V00:00:0000:00:0000:00:00
WB7NNF2026-08-30 17:31:2547.59248-117.42727138°82km/h8313m4.7m/s-32.0°C0%0hPa0V00:00:0000:00:0000:00:00
WB7NNF2026-08-30 17:31:0447.59583-117.43222132°108km/h8227m4.4m/s-31.5°C0%0hPa0V00:00:0000:00:0000:00:00
WB7NNF2026-08-30 17:30:4447.59944-117.43719134°93km/h8131m6.2m/s-31.6°C0%0hPa0V00:00:0000:00:0000:00:00
WB7NNF2026-08-30 17:30:2347.60282-117.44233141°88km/h8030m6.5m/s-30.7°C0%0hPa0V00:00:0000:00:0000:00:00
WB7NNF2026-08-30 17:30:0147.60640-117.44743129°99km/h7920m3.9m/s-29.9°C0%0hPa0V00:00:0000:00:0000:00:00
WB7NNF2026-08-30 17:29:4047.60949-117.45210137°78km/h7814m5.0m/s-29.1°C0%0hPa0V00:00:0000:00:0000:00:00
WB7NNF2026-08-30 17:29:2047.61288-117.45687138°91km/h7716m4.9m/s-28.5°C0%0hPa0V00:00:0000:00:0000:00:00
WB7NNF2026-08-30 17:28:5947.61638-117.46125143°89km/h7596m9.3m/s-27.8°C0%0hPa0V00:00:0000:00:0000:00:00
WB7NNF2026-08-30 17:28:3847.61961-117.46528133°84km/h7483m4.9m/s-27.0°C0%0hPa0V00:00:0000:00:0000:00:00
WB7NNF2026-08-30 17:28:1847.62274-117.46927132°69km/h7370m7.9m/s-26.7°C0%0hPa0V00:00:0000:00:0000:00:00
WB7NNF2026-08-30 17:27:5747.62610-117.47240136°73km/h7243m7.2m/s-25.8°C0%0hPa0V00:00:0000:00:0000:00:00
WB7NNF2026-08-30 17:27:3747.62949-117.47589144°89km/h7137m5.2m/s-26.0°C0%0hPa0V00:00:0000:00:0000:00:00
WB7NNF2026-08-30 17:27:1647.63330-117.47954140°78km/h7025m9.4m/s-25.9°C0%0hPa0V00:00:0000:00:0000:00:00
WB7NNF2026-08-30 17:26:5647.63660-117.48335149°66km/h6900m4.1m/s-24.7°C0%0hPa0V00:00:0000:00:0000:00:00
WB7NNF2026-08-30 17:26:3547.63983-117.48724127°77km/h6780m4.0m/s-23.7°C0%0hPa0V00:00:0000:00:0000:00:00
WB7NNF2026-08-30 17:26:1547.64342-117.49153140°93km/h6677m3.9m/s-22.9°C0%0hPa0V00:00:0000:00:0000:00:00
WB7NNF2026-08-30 17:25:5447.64680-117.49506156°91km/h6571m4.9m/s-22.2°C0%0hPa0V00:00:0000:00:0000:00:00
WB7NNF2026-08-30 17:25:3347.65019-117.49808141°77km/h6458m5.5m/s-21.4°C0%0hPa0V00:00:0000:00:0000:00:00
WB7NNF2026-08-30 17:25:1047.65380-117.50190144°93km/h6350m3.2m/s-20.6°C0%0hPa0V00:00:0000:00:0000:00:00
WB7NNF2026-08-30 17:24:4947.65693-117.50517134°64km/h6252m4.2m/s-20.0°C0%0hPa0V00:00:0000:00:0000:00:00
WB7NNF2026-08-30 17:24:0847.66251-117.51070141°75km/h6017m4.2m/s-18.6°C0%0hPa0V00:00:0000:00:0000:00:00
WB7NNF2026-08-30 17:23:4747.66500-117.51348160°75km/h5911m3.4m/s-17.8°C0%0hPa0V00:00:0000:00:0000:00:00
WB7NNF2026-08-30 17:23:2747.66726-117.51685137°38km/h5796m4.2m/s-16.9°C0%0hPa0V00:00:0000:00:0000:00:00
WB7NNF2026-08-30 17:23:0647.66988-117.52035123°60km/h5685m8.2m/s-16.2°C0%0hPa0V00:00:0000:00:0000:00:00
WB7NNF2026-08-30 17:22:3747.67271-117.52556138°44km/h5527m8.5m/s-15.3°C0%0hPa0V00:00:0000:00:0000:00:00
WB7NNF2026-08-30 17:22:1747.67424-117.52860112°69km/h5398m7.3m/s-14.5°C0%0hPa0V00:00:0000:00:0000:00:00
WB7NNF2026-08-30 17:21:5447.67587-117.53176154°62km/h5290m5.1m/s-13.8°C0%0hPa0V00:00:0000:00:0000:00:00
WB7NNF2026-08-30 17:21:3147.67763-117.53474125°60km/h5159m4.7m/s-12.7°C0%0hPa0V00:00:0000:00:0000:00:00
WB7NNF2026-08-30 17:21:1047.67907-117.53751117°46km/h5048m7.1m/s-11.8°C0%0hPa0V00:00:0000:00:0000:00:00
WB7NNF2026-08-30 17:20:5047.68040-117.54065135°51km/h4936m6.9m/s-11.0°C0%0hPa0V00:00:0000:00:0000:00:00
WB7NNF2026-08-30 17:20:2947.68211-117.54341106°42km/h4824m6.6m/s-10.1°C0%0hPa0V00:00:0000:00:0000:00:00


GPX KML Map

© wettersonde.net (DO2JMG) - 2026  -  -